Time;durP1;ratioP1;P1;durP2;ratioP2;P2;SDS_P1;SDS_P2;PMS_P1;PMS_P2;Temp;Humidity;BMP_temperature;BMP_pressure;BME280_temperature;BME280_humidity;BME280_pressure;Samples;Min_cycle;Max_cycle;Signal;HPM_P1;HPM_P2
2023/05/26 00:00:17;;;;;;;11.38;6.15;;;;;14.90;99398.00;;;;5054060;28;20537;-62
2023/05/26 00:02:44;;;;;;;10.90;5.93;;;;;14.90;99393.00;;;;5055192;28;20102;-61
2023/05/26 00:05:11;;;;;;;10.27;6.00;;;;;14.80;99400.00;;;;5055706;28;20045;-60
2023/05/26 00:07:41;;;;;;;10.35;6.53;;;;;14.80;99398.00;;;;5059846;28;20049;-61
2023/05/26 00:10:09;;;;;;;11.40;6.18;;;;;14.70;99395.00;;;;5059187;28;20072;-62
2023/05/26 00:12:37;;;;;;;11.82;6.07;;;;;14.70;99391.00;;;;5055151;28;20494;-61
2023/05/26 00:15:05;;;;;;;9.75;5.85;;;;;14.70;99396.00;;;;5053219;28;20041;-64
2023/05/26 00:17:31;;;;;;;8.73;5.47;;;;;14.70;99396.00;;;;5036553;28;20053;-62
2023/05/26 00:20:01;;;;;;;8.65;5.50;;;;;14.80;99390.00;;;;5036106;28;20140;-63
2023/05/26 00:22:28;;;;;;;11.00;5.60;;;;;14.80;99395.00;;;;5036407;28;20060;-61
2023/05/26 00:24:55;;;;;;;10.02;6.82;;;;;14.60;99394.00;;;;5052789;28;20060;-64
2023/05/26 00:27:21;;;;;;;10.95;6.40;;;;;14.60;99394.00;;;;5053996;28;20468;-62
2023/05/26 00:29:48;;;;;;;11.38;6.47;;;;;14.60;99386.00;;;;5052298;28;20044;-64
2023/05/26 00:32:18;;;;;;;8.02;6.53;;;;;14.60;99391.00;;;;5052929;28;20060;-62
2023/05/26 00:34:45;;;;;;;7.03;5.13;;;;;14.60;99392.00;;;;5052397;28;20037;-62
2023/05/26 00:37:12;;;;;;;9.68;5.82;;;;;14.50;99391.00;;;;5053650;28;20033;-62
2023/05/26 00:39:38;;;;;;;13.48;6.18;;;;;14.50;99388.00;;;;5052346;28;20044;-63
2023/05/26 00:42:05;;;;;;;8.63;5.57;;;;;14.50;99397.00;;;;5052445;28;20477;-63
2023/05/26 00:44:32;;;;;;;11.10;6.38;;;;;14.40;99393.00;;;;5035643;28;20049;-63
2023/05/26 00:46:58;;;;;;;7.95;5.65;;;;;14.20;99392.00;;;;5052196;28;20051;-63
2023/05/26 00:49:25;;;;;;;9.27;6.13;;;;;14.20;99394.00;;;;5051913;28;20048;-62
2023/05/26 00:51:52;;;;;;;9.85;6.55;;;;;14.10;99386.00;;;;5053452;28;20049;-63
2023/05/26 00:54:22;;;;;;;9.45;6.30;;;;;14.00;99387.00;;;;5053475;28;20071;-62
2023/05/26 00:56:51;;;;;;;10.32;6.03;;;;;14.00;99390.00;;;;5053506;28;20451;-63
2023/05/26 00:59:18;;;;;;;6.93;5.78;;;;;14.00;99387.00;;;;5052012;28;20478;-63
2023/05/26 01:01:45;;;;;;;10.05;6.53;;;;;14.00;99385.00;;;;5052816;28;20048;-62
2023/05/26 01:04:12;;;;;;;10.50;6.53;;;;;13.90;99379.00;;;;5053405;28;20075;-63
2023/05/26 01:06:38;;;;;;;10.50;6.55;;;;;13.90;99372.00;;;;5053814;28;20115;-62
2023/05/26 01:09:05;;;;;;;11.15;6.35;;;;;14.00;99368.00;;;;5053908;28;20047;-62
2023/05/26 01:11:41;;;;;;;6.50;5.30;;;;;14.00;99374.00;;;;5053453;28;20119;-63
2023/05/26 01:14:27;;;;;;;8.73;5.38;;;;;14.00;99367.00;;;;5053530;28;20049;-63
2023/05/26 01:17:01;;;;;;;8.55;6.00;;;;;14.00;99374.00;;;;5053567;28;20429;-63
2023/05/26 01:19:57;;;;;;;8.73;6.05;;;;;13.90;99365.00;;;;5053085;28;20044;-62
2023/05/26 01:22:51;;;;;;;8.15;5.93;;;;;13.80;99377.00;;;;5053296;28;20120;-62
2023/05/26 01:25:36;;;;;;;9.85;6.40;;;;;13.80;99372.00;;;;5052939;28;20065;-63
2023/05/26 01:28:10;;;;;;;10.13;6.68;;;;;13.70;99372.00;;;;5052193;28;20048;-62
2023/05/26 01:30:38;;;;;;;9.70;6.05;;;;;13.60;99362.00;;;;5052603;28;20048;-63
2023/05/26 01:33:04;;;;;;;9.35;6.20;;;;;13.70;99363.00;;;;5051417;28;20103;-64
2023/05/26 01:35:31;;;;;;;11.60;6.43;;;;;13.60;99368.00;;;;5052223;28;20098;-63
2023/05/26 01:37:59;;;;;;;7.10;5.88;;;;;13.60;99365.00;;;;5053081;28;20041;-64
2023/05/26 01:40:26;;;;;;;8.25;6.40;;;;;13.40;99358.00;;;;5050701;28;20147;-64
2023/05/26 01:43:02;;;;;;;8.90;6.47;;;;;13.40;99362.00;;;;5050562;28;20049;-63
2023/05/26 01:45:40;;;;;;;8.32;6.13;;;;;13.50;99356.00;;;;5050252;28;20111;-62
2023/05/26 01:48:09;;;;;;;9.48;6.57;;;;;13.40;99363.00;;;;5051377;28;20405;-64
2023/05/26 01:50:56;;;;;;;9.00;5.70;;;;;13.50;99362.00;;;;5050189;28;20498;-63
2023/05/26 01:53:35;;;;;;;12.00;6.93;;;;;13.60;99365.00;;;;5051921;28;20052;-64
2023/05/26 01:56:03;;;;;;;8.50;6.25;;;;;13.60;99369.00;;;;5050477;28;20049;-63
2023/05/26 01:58:31;;;;;;;9.93;6.22;;;;;13.60;99373.00;;;;5033570;28;20079;-64
2023/05/26 02:00:58;;;;;;;10.90;5.82;;;;;13.50;99364.00;;;;5049941;28;20053;-63
2023/05/26 02:03:25;;;;;;;8.27;5.80;;;;;13.40;99362.00;;;;5050077;28;20135;-64
2023/05/26 02:05:51;;;;;;;12.82;7.45;;;;;13.50;99365.00;;;;5049741;28;20049;-63
2023/05/26 02:08:20;;;;;;;13.52;8.02;;;;;13.50;99363.00;;;;5050008;28;20556;-64
2023/05/26 02:10:47;;;;;;;13.70;6.95;;;;;13.60;99369.00;;;;5049969;28;20144;-63
2023/05/26 02:13:13;;;;;;;11.90;6.53;;;;;13.60;99365.00;;;;5049953;28;20049;-64
2023/05/26 02:15:40;;;;;;;9.32;6.78;;;;;13.60;99367.00;;;;5049711;28;20041;-63
2023/05/26 02:18:07;;;;;;;9.82;6.32;;;;;13.40;99371.00;;;;5049196;28;20048;-64
2023/05/26 02:20:34;;;;;;;9.40;6.45;;;;;13.30;99373.00;;;;5049204;28;20057;-64
2023/05/26 02:23:00;;;;;;;10.32;6.10;;;;;13.30;99366.00;;;;5049756;28;20041;-63
2023/05/26 02:25:27;;;;;;;8.48;5.97;;;;;13.30;99377.00;;;;5049915;28;20143;-64
2023/05/26 02:27:54;;;;;;;13.35;6.78;;;;;13.20;99367.00;;;;5049680;28;20053;-64
2023/05/26 02:30:20;;;;;;;7.78;5.68;;;;;13.20;99363.00;;;;5013033;28;1052489;-62
2023/05/26 02:32:47;;;;;;;9.38;6.20;;;;;13.20;99356.00;;;;5051999;28;20552;-64
2023/05/26 02:35:13;;;;;;;11.13;6.88;;;;;13.20;99354.00;;;;5051587;28;20048;-63
2023/05/26 02:37:42;;;;;;;11.55;7.22;;;;;13.20;99345.00;;;;5050587;28;20061;-63
2023/05/26 02:40:09;;;;;;;12.10;6.90;;;;;13.20;99355.00;;;;5033744;28;20110;-64
2023/05/26 02:42:35;;;;;;;11.93;7.05;;;;;13.20;99349.00;;;;5050589;28;20055;-63
2023/05/26 02:45:02;;;;;;;11.35;6.90;;;;;13.10;99351.00;;;;5050438;28;20567;-64
2023/05/26 02:47:29;;;;;;;10.15;6.78;;;;;13.00;99350.00;;;;5050502;28;20399;-63
2023/05/26 02:49:56;;;;;;;13.10;7.00;;;;;12.90;99350.00;;;;5051463;28;20502;-63
2023/05/26 02:52:23;;;;;;;9.80;6.80;;;;;12.90;99351.00;;;;5033782;28;20560;-64
2023/05/26 02:54:50;;;;;;;7.57;5.78;;;;;12.80;99349.00;;;;5033730;28;20049;-63
2023/05/26 02:57:16;;;;;;;10.25;6.50;;;;;12.70;99351.00;;;;5051600;28;20048;-64
2023/05/26 02:59:43;;;;;;;10.63;6.75;;;;;12.60;99351.00;;;;5033654;28;20471;-63
2023/05/26 03:02:11;;;;;;;11.77;6.40;;;;;12.70;99346.00;;;;5050254;28;20068;-64
2023/05/26 03:04:38;;;;;;;11.02;6.53;;;;;12.70;99345.00;;;;5050416;28;20056;-63
2023/05/26 03:07:07;;;;;;;10.05;6.72;;;;;12.70;99350.00;;;;5033664;28;20049;-64
2023/05/26 03:09:35;;;;;;;11.38;6.00;;;;;12.70;99343.00;;;;5050050;28;20041;-64
2023/05/26 03:12:06;;;;;;;9.68;6.40;;;;;12.70;99342.00;;;;5050192;28;20068;-63
2023/05/26 03:14:33;;;;;;;10.98;6.88;;;;;12.70;99345.00;;;;5033840;28;20049;-63
2023/05/26 03:17:00;;;;;;;8.85;6.65;;;;;12.70;99339.00;;;;5050156;28;20414;-63
2023/05/26 03:19:27;;;;;;;9.32;6.25;;;;;12.60;99338.00;;;;5049775;28;20509;-63
2023/05/26 03:21:55;;;;;;;16.10;8.50;;;;;12.60;99327.00;;;;5050025;28;20421;-63
2023/05/26 03:24:42;;;;;;;10.93;6.18;;;;;12.60;99325.00;;;;5051517;28;20052;-63
2023/05/26 03:27:08;;;;;;;11.05;7.15;;;;;12.50;99332.00;;;;5050093;28;20083;-63
2023/05/26 03:29:35;;;;;;;9.48;6.65;;;;;12.40;99333.00;;;;5051110;28;20136;-63
2023/05/26 03:32:02;;;;;;;10.88;6.30;;;;;12.40;99330.00;;;;5053691;28;20118;-63
2023/05/26 03:34:29;;;;;;;11.60;6.88;;;;;12.50;99338.00;;;;5054759;28;20394;-63
2023/05/26 03:36:56;;;;;;;10.20;6.57;;;;;12.60;99337.00;;;;5052707;28;20045;-63
2023/05/26 03:39:25;;;;;;;9.73;6.57;;;;;12.60;99344.00;;;;5054361;28;20124;-62
2023/05/26 03:41:55;;;;;;;12.43;6.20;;;;;12.50;99330.00;;;;5054704;28;20375;-63
2023/05/26 03:44:24;;;;;;;8.43;5.88;;;;;12.50;99333.00;;;;5053160;28;20040;-63
2023/05/26 03:46:51;;;;;;;10.15;6.53;;;;;12.50;99341.00;;;;5053555;28;20041;-62
2023/05/26 03:49:18;;;;;;;9.45;7.05;;;;;12.60;99348.00;;;;5053109;28;20051;-63
2023/05/26 03:51:45;;;;;;;9.38;6.35;;;;;12.60;99342.00;;;;5036572;28;20460;-61
2023/05/26 03:54:12;;;;;;;8.98;6.60;;;;;12.60;99344.00;;;;5053280;28;20489;-62
2023/05/26 03:56:38;;;;;;;10.20;7.45;;;;;12.70;99343.00;;;;5053086;28;20456;-63
2023/05/26 03:59:06;;;;;;;9.32;6.75;;;;;12.70;99354.00;;;;5052892;28;20148;-63
2023/05/26 04:01:36;;;;;;;12.10;6.72;;;;;12.70;99350.00;;;;5053086;28;20132;-63
2023/05/26 04:04:03;;;;;;;9.45;6.57;;;;;12.70;99357.00;;;;5053166;28;20048;-63
2023/05/26 04:06:31;;;;;;;9.43;6.25;;;;;12.70;99348.00;;;;5062791;28;20036;-62
2023/05/26 04:09:00;;;;;;;9.32;6.07;;;;;12.70;99355.00;;;;5062083;28;20037;-62
2023/05/26 04:11:27;;;;;;;9.00;6.65;;;;;12.70;99356.00;;;;5055394;28;20049;-63
2023/05/26 04:13:54;;;;;;;10.00;6.55;;;;;12.70;99360.00;;;;5053272;28;20059;-63
2023/05/26 04:16:20;;;;;;;10.20;6.60;;;;;12.80;99347.00;;;;5052628;28;20539;-62
2023/05/26 04:18:47;;;;;;;13.65;7.75;;;;;12.90;99353.00;;;;5052825;28;20052;-63
2023/05/26 04:21:14;;;;;;;8.70;6.18;;;;;12.90;99351.00;;;;5052006;28;20111;-63
2023/05/26 04:23:40;;;;;;;8.40;6.30;;;;;13.00;99342.00;;;;5052383;28;20044;-61
2023/05/26 04:26:08;;;;;;;11.85;6.65;;;;;13.10;99349.00;;;;5053804;28;20107;-62
2023/05/26 04:28:47;;;;;;;8.15;6.70;;;;;13.20;99355.00;;;;5052982;28;20045;-62
2023/05/26 04:31:29;;;;;;;12.32;8.40;;;;;13.30;99346.00;;;;5038065;28;20137;-62
2023/05/26 04:34:06;;;;;;;12.25;7.13;;;;;13.40;99356.00;;;;5037299;28;20049;-62
2023/05/26 04:36:48;;;;;;;9.82;7.28;;;;;13.40;99357.00;;;;5052506;28;20068;-62
2023/05/26 04:39:15;;;;;;;7.20;5.93;;;;;13.40;99363.00;;;;5053753;28;20053;-63
2023/05/26 04:41:43;;;;;;;9.90;6.75;;;;;13.40;99354.00;;;;5051433;28;20383;-63
2023/05/26 04:44:11;;;;;;;9.90;6.57;;;;;13.40;99357.00;;;;5053696;28;20076;-63
2023/05/26 04:46:38;;;;;;;9.15;6.50;;;;;13.50;99353.00;;;;5053746;28;20040;-63
2023/05/26 04:49:07;;;;;;;13.25;7.80;;;;;13.60;99362.00;;;;5052114;28;20073;-64
2023/05/26 04:51:35;;;;;;;10.88;7.07;;;;;13.60;99358.00;;;;5035340;28;20045;-64
2023/05/26 04:54:02;;;;;;;11.77;7.20;;;;;13.70;99359.00;;;;5035621;28;20076;-64
2023/05/26 04:56:29;;;;;;;9.52;7.13;;;;;13.80;99358.00;;;;5052216;28;20060;-64
2023/05/26 04:58:58;;;;;;;9.13;6.65;;;;;13.90;99356.00;;;;5051809;28;20530;-61
2023/05/26 05:01:26;;;;;;;10.45;6.80;;;;;13.90;99360.00;;;;5035598;28;20045;-62
2023/05/26 05:04:17;;;;;;;10.90;7.50;;;;;14.00;99362.00;;;;5052833;28;20450;-64
2023/05/26 05:06:49;;;;;;;10.23;7.15;;;;;14.10;99358.00;;;;5052100;28;20041;-64
2023/05/26 05:09:16;;;;;;;13.20;7.90;;;;;14.20;99363.00;;;;5035551;28;20057;-64
2023/05/26 05:11:43;;;;;;;11.57;7.57;;;;;14.30;99361.00;;;;5052321;28;20045;-63
2023/05/26 05:14:11;;;;;;;9.85;7.22;;;;;14.40;99367.00;;;;5051741;28;20094;-64
2023/05/26 05:16:37;;;;;;;11.27;7.13;;;;;14.40;99370.00;;;;5051676;28;20136;-63
2023/05/26 05:19:04;;;;;;;11.00;7.38;;;;;14.40;99370.00;;;;5034936;28;20528;-62
2023/05/26 05:21:35;;;;;;;10.18;7.40;;;;;14.40;99376.00;;;;5051393;28;20528;-64
2023/05/26 05:24:02;;;;;;;11.77;8.18;;;;;14.40;99367.00;;;;5051532;28;20052;-62
2023/05/26 05:26:29;;;;;;;11.40;8.05;;;;;14.50;99373.00;;;;5051283;28;20041;-63
2023/05/26 05:28:56;;;;;;;16.45;9.23;;;;;14.60;99373.00;;;;5051481;28;20045;-64
2023/05/26 05:31:30;;;;;;;13.20;8.48;;;;;14.60;99373.00;;;;5051497;28;20120;-63
2023/05/26 05:33:57;;;;;;;13.55;7.90;;;;;14.70;99381.00;;;;5051243;28;20069;-64
2023/05/26 05:36:24;;;;;;;12.68;7.88;;;;;14.70;99382.00;;;;5051012;28;20041;-62
2023/05/26 05:38:51;;;;;;;9.75;7.75;;;;;14.80;99383.00;;;;5050986;28;20056;-64
2023/05/26 05:41:19;;;;;;;12.63;7.93;;;;;14.90;99391.00;;;;5051242;28;20520;-64
2023/05/26 05:43:45;;;;;;;13.55;9.88;;;;;14.90;99382.00;;;;5051386;28;20045;-63
2023/05/26 05:46:12;;;;;;;14.43;8.30;;;;;14.90;99379.00;;;;5034914;28;20494;-63
2023/05/26 05:48:57;;;;;;;9.55;6.75;;;;;14.90;99382.00;;;;5052300;28;20056;-64
2023/05/26 05:51:33;;;;;;;11.15;7.40;;;;;15.00;99381.00;;;;5051038;28;20056;-64
2023/05/26 05:53:59;;;;;;;12.68;7.50;;;;;15.00;99379.00;;;;5051120;28;20043;-63
2023/05/26 05:56:27;;;;;;;11.55;5.97;;;;;15.00;99381.00;;;;5051114;28;20044;-63
2023/05/26 05:58:55;;;;;;;10.85;6.15;;;;;15.10;99382.00;;;;5050620;28;20501;-63
2023/05/26 06:01:22;;;;;;;13.93;6.60;;;;;15.10;99387.00;;;;5050915;28;20513;-62
2023/05/26 06:03:50;;;;;;;14.73;6.60;;;;;15.10;99383.00;;;;5050808;28;20049;-63
2023/05/26 06:06:17;;;;;;;10.75;5.95;;;;;15.20;99389.00;;;;5050735;28;20045;-63
2023/05/26 06:08:44;;;;;;;11.98;6.93;;;;;15.30;99390.00;;;;5050880;28;20049;-63
2023/05/26 06:11:12;;;;;;;13.07;7.13;;;;;15.30;99387.00;;;;5034283;28;20040;-63
2023/05/26 06:13:42;;;;;;;10.95;6.03;;;;;15.30;99394.00;;;;5050935;28;20048;-64
2023/05/26 06:16:09;;;;;;;15.80;7.75;;;;;15.40;99398.00;;;;5050720;28;20087;-63
2023/05/26 06:18:36;;;;;;;10.02;5.75;;;;;15.60;99390.00;;;;5050640;28;20048;-63
2023/05/26 06:21:03;;;;;;;12.68;6.82;;;;;15.60;99396.00;;;;5050311;28;20095;-63
2023/05/26 06:23:30;;;;;;;16.15;7.15;;;;;15.70;99400.00;;;;5050892;28;20041;-62
2023/05/26 06:25:57;;;;;;;11.90;6.72;;;;;15.80;99407.00;;;;5050528;28;20417;-63
2023/05/26 06:28:25;;;;;;;13.63;7.07;;;;;15.80;99405.00;;;;5050584;28;20083;-64
2023/05/26 06:30:51;;;;;;;11.45;7.13;;;;;15.90;99407.00;;;;5051580;28;20477;-63
2023/05/26 06:33:35;;;;;;;15.10;7.00;;;;;15.90;99407.00;;;;5050741;28;20059;-63
2023/05/26 06:36:01;;;;;;;11.13;7.50;;;;;16.00;99406.00;;;;5050601;28;20033;-63
2023/05/26 06:38:28;;;;;;;13.45;7.95;;;;;16.10;99401.00;;;;5050600;28;20041;-63
2023/05/26 06:40:59;;;;;;;10.25;6.95;;;;;16.20;99400.00;;;;5050296;28;20044;-63
2023/05/26 06:43:26;;;;;;;12.48;7.22;;;;;16.30;99405.00;;;;5050192;28;20072;-63
2023/05/26 06:45:53;;;;;;;10.52;6.82;;;;;16.30;99402.00;;;;5050256;28;20076;-63
2023/05/26 06:48:20;;;;;;;12.57;7.22;;;;;16.30;99401.00;;;;5050391;28;20045;-63
2023/05/26 06:51:13;;;;;;;15.20;7.57;;;;;16.30;99400.00;;;;5050257;28;20143;-63
2023/05/26 06:53:40;;;;;;;16.25;6.78;;;;;16.30;99400.00;;;;5034404;28;20045;-63
2023/05/26 06:56:06;;;;;;;15.35;7.43;;;;;16.30;99408.00;;;;5033701;28;20494;-63
2023/05/26 06:58:35;;;;;;;18.13;6.97;;;;;16.40;99402.00;;;;5050404;28;20048;-63
2023/05/26 07:01:03;;;;;;;10.00;7.20;;;;;16.50;99404.00;;;;5050026;28;20057;-63
2023/05/26 07:03:32;;;;;;;15.48;6.70;;;;;16.60;99404.00;;;;5050323;28;20076;-63
2023/05/26 07:06:00;;;;;;;11.32;7.18;;;;;16.60;99409.00;;;;5052366;28;20044;-63
2023/05/26 07:08:28;;;;;;;17.25;7.07;;;;;16.70;99404.00;;;;5054016;28;20549;-63
2023/05/26 07:11:11;;;;;;;12.70;7.00;;;;;16.90;99406.00;;;;5053695;28;20037;-65
2023/05/26 07:13:37;;;;;;;15.00;6.82;;;;;16.90;99412.00;;;;5055311;28;20067;-65
2023/05/26 07:16:04;;;;;;;13.68;6.93;;;;;17.00;99403.00;;;;5054719;28;20061;-63
2023/05/26 07:18:31;;;;;;;11.93;7.03;;;;;17.00;99405.00;;;;5053680;28;20122;-64
2023/05/26 07:20:58;;;;;;;12.30;7.10;;;;;17.10;99416.00;;;;5053466;28;20426;-64
2023/05/26 07:23:25;;;;;;;13.02;7.57;;;;;17.00;99420.00;;;;5053777;28;20132;-64
2023/05/26 07:25:52;;;;;;;15.95;8.02;;;;;17.10;99412.00;;;;5037457;28;20099;-64
2023/05/26 07:28:19;;;;;;;12.27;6.60;;;;;17.10;99422.00;;;;5053623;28;20041;-64
2023/05/26 07:30:46;;;;;;;9.48;6.90;;;;;17.10;99422.00;;;;5053992;28;20114;-64
2023/05/26 07:33:18;;;;;;;13.27;6.60;;;;;17.20;99417.00;;;;5053837;28;20049;-64
2023/05/26 07:35:45;;;;;;;12.82;6.43;;;;;17.20;99412.00;;;;5053450;28;20136;-64
2023/05/26 07:38:12;;;;;;;13.95;7.00;;;;;17.40;99422.00;;;;5053680;28;20477;-64
2023/05/26 07:40:39;;;;;;;12.00;7.05;;;;;17.60;99416.00;;;;5054823;28;20046;-65
2023/05/26 07:43:10;;;;;;;10.65;6.95;;;;;17.60;99424.00;;;;5055290;28;20123;-64
2023/05/26 07:45:36;;;;;;;15.20;7.18;;;;;17.60;99423.00;;;;5053783;28;20083;-64
2023/05/26 07:48:03;;;;;;;10.18;6.43;;;;;17.70;99408.00;;;;5055291;28;20041;-63
2023/05/26 07:50:30;;;;;;;11.75;7.28;;;;;17.90;99422.00;;;;5054798;28;20425;-65
2023/05/26 07:52:57;;;;;;;13.75;7.03;;;;;17.80;99422.00;;;;5054746;28;20387;-65
2023/05/26 07:55:23;;;;;;;13.77;6.68;;;;;17.90;99420.00;;;;5054762;28;20045;-63
2023/05/26 07:57:50;;;;;;;10.27;6.63;;;;;18.00;99423.00;;;;5055343;28;20043;-65
2023/05/26 08:00:17;;;;;;;11.90;6.43;;;;;18.10;99427.00;;;;5056134;28;20123;-63
2023/05/26 08:02:43;;;;;;;12.75;6.95;;;;;18.20;99430.00;;;;5054988;28;20556;-64
2023/05/26 08:05:10;;;;;;;9.80;6.03;;;;;18.30;99418.00;;;;5054451;28;20099;-64
2023/05/26 08:07:37;;;;;;;10.00;6.70;;;;;18.40;99418.00;;;;5070844;28;20402;-63
2023/05/26 08:10:03;;;;;;;13.10;6.70;;;;;18.40;99418.00;;;;5069204;28;20100;-63
2023/05/26 08:12:30;;;;;;;8.38;6.38;;;;;18.50;99423.00;;;;5056810;28;20087;-63
2023/05/26 08:14:57;;;;;;;9.30;6.45;;;;;18.60;99418.00;;;;5053402;28;20045;-65
2023/05/26 08:17:23;;;;;;;12.27;6.30;;;;;18.80;99424.00;;;;5054316;28;20037;-65
2023/05/26 08:19:50;;;;;;;12.85;6.47;;;;;18.70;99425.00;;;;5054187;28;20045;-65
2023/05/26 08:22:16;;;;;;;12.40;6.18;;;;;18.80;99426.00;;;;5036096;28;20056;-65
2023/05/26 08:24:43;;;;;;;12.80;6.93;;;;;18.80;99424.00;;;;5054265;28;20097;-65
2023/05/26 08:27:10;;;;;;;11.38;6.63;;;;;18.70;99420.00;;;;5053137;28;20045;-65
2023/05/26 08:29:36;;;;;;;9.13;6.30;;;;;18.70;99412.00;;;;5053722;28;20120;-65
2023/05/26 08:32:03;;;;;;;11.43;7.13;;;;;18.80;99424.00;;;;5052878;28;20045;-65
2023/05/26 08:34:30;;;;;;;17.42;7.07;;;;;18.80;99426.00;;;;5053764;28;20040;-64
2023/05/26 08:36:56;;;;;;;9.73;6.40;;;;;18.90;99425.00;;;;5053578;28;20045;-65
2023/05/26 08:39:23;;;;;;;12.18;6.90;;;;;18.90;99423.00;;;;5054168;28;20059;-65
2023/05/26 08:42:00;;;;;;;11.07;6.72;;;;;18.90;99419.00;;;;5053850;28;20465;-65
2023/05/26 08:44:27;;;;;;;10.15;6.78;;;;;19.10;99426.00;;;;5053831;28;20099;-64
2023/05/26 08:46:57;;;;;;;13.68;6.60;;;;;19.20;99426.00;;;;5054358;28;20045;-65
2023/05/26 08:49:24;;;;;;;12.50;6.80;;;;;19.10;99430.00;;;;5054162;28;20052;-64
2023/05/26 08:52:13;;;;;;;10.40;6.00;;;;;19.20;99425.00;;;;5052655;28;20086;-64
2023/05/26 08:54:40;;;;;;;13.40;6.88;;;;;19.30;99423.00;;;;5053950;28;20063;-64
2023/05/26 08:57:09;;;;;;;11.40;6.47;;;;;19.30;99430.00;;;;5053874;28;20128;-66
2023/05/26 08:59:37;;;;;;;11.43;6.53;;;;;19.40;99421.00;;;;5052372;28;20509;-64
2023/05/26 09:02:04;;;;;;;9.90;6.68;;;;;19.50;99425.00;;;;5054025;28;20041;-64
2023/05/26 09:04:30;;;;;;;13.63;7.13;;;;;19.60;99434.00;;;;5053699;28;20056;-65
2023/05/26 09:06:58;;;;;;;13.55;7.72;;;;;19.50;99426.00;;;;5052529;28;20040;-64
2023/05/26 09:09:45;;;;;;;11.63;7.32;;;;;19.60;99426.00;;;;5053824;28;20045;-64
2023/05/26 09:12:12;;;;;;;14.95;6.32;;;;;19.60;99429.00;;;;5053254;28;20140;-63
2023/05/26 09:14:40;;;;;;;17.05;7.38;;;;;19.70;99431.00;;;;5053757;28;20059;-64
2023/05/26 09:17:12;;;;;;;11.23;6.72;;;;;19.90;99435.00;;;;5053562;28;20051;-64
2023/05/26 09:19:39;;;;;;;9.27;6.03;;;;;19.90;99434.00;;;;5051493;28;20053;-64
2023/05/26 09:22:08;;;;;;;11.43;7.07;;;;;20.10;99427.00;;;;5052873;28;20077;-64
2023/05/26 09:24:47;;;;;;;14.07;6.82;;;;;20.10;99438.00;;;;5052910;28;20049;-64
2023/05/26 09:27:22;;;;;;;9.88;6.57;;;;;20.20;99439.00;;;;5052872;28;20131;-64
2023/05/26 09:29:55;;;;;;;12.57;7.20;;;;;20.30;99438.00;;;;5051085;28;20045;-64
2023/05/26 09:32:26;;;;;;;15.37;6.73;;;;;20.30;99439.00;;;;5052964;28;20564;-65
2023/05/26 09:34:57;;;;;;;12.27;6.43;;;;;20.50;99440.00;;;;5052804;28;20282;-63
2023/05/26 09:37:30;;;;;;;10.50;6.28;;;;;20.50;99441.00;;;;5052848;28;20041;-63
2023/05/26 09:40:08;;;;;;;13.30;7.20;;;;;20.50;99438.00;;;;5053125;28;20497;-62
2023/05/26 09:42:45;;;;;;;11.85;6.13;;;;;20.50;99434.00;;;;5052697;28;20044;-63
2023/05/26 09:45:11;;;;;;;14.43;6.68;;;;;20.50;99440.00;;;;5051204;28;20107;-63
2023/05/26 09:47:38;;;;;;;11.43;5.72;;;;;20.50;99437.00;;;;5051525;28;20051;-63
2023/05/26 09:50:06;;;;;;;15.30;6.50;;;;;20.60;99428.00;;;;5052350;28;20098;-63
2023/05/26 09:52:33;;;;;;;10.30;5.45;;;;;20.60;99437.00;;;;5052552;28;20045;-63
2023/05/26 09:55:00;;;;;;;12.52;5.35;;;;;20.70;99435.00;;;;5052432;28;20044;-63
2023/05/26 09:57:30;;;;;;;18.38;6.15;;;;;21.00;99439.00;;;;5052450;28;20051;-63
2023/05/26 10:00:00;;;;;;;16.63;9.55;;;;;21.10;99442.00;;;;5052116;28;20041;-63
2023/05/26 10:02:28;;;;;;;13.23;6.10;;;;;21.00;99449.00;;;;5051057;28;20056;-63
2023/05/26 10:04:56;;;;;;;13.65;6.18;;;;;20.90;99438.00;;;;5052244;28;20482;-63
2023/05/26 10:07:23;;;;;;;11.43;5.45;;;;;21.00;99446.00;;;;5052308;28;20048;-63
2023/05/26 10:09:57;;;;;;;12.65;5.93;;;;;20.90;99443.00;;;;5051974;28;20124;-63
2023/05/26 10:12:29;;;;;;;12.77;6.32;;;;;20.90;99443.00;;;;5052171;28;20055;-63
2023/05/26 10:14:56;;;;;;;13.40;5.60;;;;;21.00;99439.00;;;;5051985;28;20524;-63
2023/05/26 10:17:25;;;;;;;11.27;4.85;;;;;20.90;99445.00;;;;5052611;28;20391;-63
2023/05/26 10:19:54;;;;;;;10.82;6.15;;;;;20.90;99442.00;;;;5051928;28;20041;-63
2023/05/26 10:22:29;;;;;;;17.27;6.50;;;;;21.00;99442.00;;;;5050496;28;20068;-62
2023/05/26 10:25:11;;;;;;;13.93;5.85;;;;;21.00;99431.00;;;;5051834;28;20116;-63
2023/05/26 10:27:50;;;;;;;10.25;5.45;;;;;21.00;99426.00;;;;5051957;28;20047;-63
2023/05/26 10:30:19;;;;;;;8.75;5.00;;;;;21.10;99442.00;;;;5051685;28;20051;-63
2023/05/26 10:32:52;;;;;;;9.05;5.38;;;;;21.20;99430.00;;;;5050728;28;20087;-63
2023/05/26 10:35:23;;;;;;;8.52;4.60;;;;;21.20;99426.00;;;;5052489;28;20208;-63
2023/05/26 10:37:57;;;;;;;8.18;5.35;;;;;21.30;99423.00;;;;5050462;28;20065;-64
2023/05/26 10:40:36;;;;;;;9.85;4.90;;;;;21.40;99420.00;;;;5053131;28;20052;-64
2023/05/26 10:43:13;;;;;;;10.82;4.95;;;;;21.50;99427.00;;;;5056020;28;20045;-64
2023/05/26 10:45:47;;;;;;;10.38;5.60;;;;;21.50;99431.00;;;;5055729;28;20045;-64
2023/05/26 10:48:16;;;;;;;11.38;5.28;;;;;21.40;99430.00;;;;5055785;28;20049;-63
2023/05/26 10:50:55;;;;;;;8.13;4.57;;;;;21.40;99434.00;;;;5055539;28;20569;-64
2023/05/26 10:53:22;;;;;;;10.20;5.35;;;;;21.40;99430.00;;;;5055823;28;20128;-64
2023/05/26 10:55:58;;;;;;;10.75;5.57;;;;;21.50;99429.00;;;;5054343;28;20493;-64
2023/05/26 10:58:31;;;;;;;9.55;4.93;;;;;21.50;99432.00;;;;5055550;28;20041;-64
2023/05/26 11:01:00;;;;;;;11.32;5.60;;;;;21.70;99434.00;;;;5054308;28;20080;-63
2023/05/26 11:03:36;;;;;;;9.48;5.40;;;;;21.60;99434.00;;;;5055689;28;20051;-64
2023/05/26 11:06:04;;;;;;;8.75;4.60;;;;;21.70;99437.00;;;;5054304;28;20045;-64
2023/05/26 11:08:45;;;;;;;7.82;4.60;;;;;21.60;99438.00;;;;5054951;28;20131;-65
2023/05/26 11:11:13;;;;;;;8.40;4.70;;;;;21.70;99436.00;;;;5037902;28;20079;-64
2023/05/26 11:13:44;;;;;;;10.80;5.15;;;;;21.80;99437.00;;;;5055198;28;20075;-66
2023/05/26 11:16:17;;;;;;;8.65;4.93;;;;;21.80;99440.00;;;;5055613;28;20075;-64
2023/05/26 11:18:51;;;;;;;10.48;4.53;;;;;21.70;99440.00;;;;5054332;28;20041;-64
2023/05/26 11:21:22;;;;;;;7.47;4.53;;;;;21.70;99437.00;;;;5055794;28;20092;-62
2023/05/26 11:23:51;;;;;;;10.77;5.00;;;;;21.70;99425.00;;;;5054122;28;20049;-64
2023/05/26 11:26:18;;;;;;;10.13;4.78;;;;;21.90;99427.00;;;;5053980;28;20409;-64
2023/05/26 11:28:45;;;;;;;12.00;4.72;;;;;22.00;99435.00;;;;5053804;28;20037;-64
2023/05/26 11:31:17;;;;;;;8.55;4.78;;;;;22.00;99434.00;;;;5054194;28;20037;-65
2023/05/26 11:33:46;;;;;;;9.00;5.03;;;;;22.20;99433.00;;;;5055271;28;20056;-63
2023/05/26 11:36:15;;;;;;;12.20;6.07;;;;;22.10;99416.00;;;;5053584;28;20045;-63
2023/05/26 11:38:43;;;;;;;8.52;5.40;;;;;22.20;99432.00;;;;5054760;28;20094;-62
2023/05/26 11:41:12;;;;;;;9.80;5.10;;;;;22.20;99431.00;;;;5054699;28;20450;-63
2023/05/26 11:43:39;;;;;;;9.27;4.20;;;;;22.10;99430.00;;;;5053587;28;20049;-61
2023/05/26 11:46:09;;;;;;;11.23;4.60;;;;;22.20;99425.00;;;;5054578;28;20049;-63
2023/05/26 11:48:41;;;;;;;10.55;4.72;;;;;22.30;99419.00;;;;5054728;28;20057;-63
2023/05/26 11:51:13;;;;;;;9.20;5.30;;;;;22.40;99430.00;;;;5054139;28;20106;-64
2023/05/26 11:53:42;;;;;;;9.95;4.88;;;;;22.30;99421.00;;;;5054789;28;20041;-63
2023/05/26 11:56:10;;;;;;;8.35;4.88;;;;;22.30;99409.00;;;;5054513;28;20047;-63
2023/05/26 11:58:41;;;;;;;7.43;4.63;;;;;22.50;99416.00;;;;5054362;28;20041;-62
2023/05/26 12:01:08;;;;;;;8.18;4.72;;;;;22.60;99420.00;;;;5054070;28;20497;-62
2023/05/26 12:03:40;;;;;;;7.70;4.25;;;;;22.50;99412.00;;;;5053378;28;20437;-62
2023/05/26 12:06:22;;;;;;;12.27;4.95;;;;;22.50;99422.00;;;;5053093;28;20053;-62
2023/05/26 12:09:03;;;;;;;8.77;4.47;;;;;22.40;99410.00;;;;5055954;28;20037;-62
2023/05/26 12:11:42;;;;;;;10.55;5.13;;;;;22.50;99404.00;;;;5069891;28;20041;-62
2023/05/26 12:14:13;;;;;;;7.28;4.22;;;;;22.70;99399.00;;;;5063294;28;20142;-63
2023/05/26 12:16:46;;;;;;;11.75;4.70;;;;;22.80;99412.00;;;;5054543;28;20049;-63
2023/05/26 12:19:16;;;;;;;9.30;4.88;;;;;22.80;99404.00;;;;5054165;28;20513;-63
2023/05/26 12:21:58;;;;;;;9.02;4.97;;;;;22.80;99407.00;;;;5054126;28;20045;-64